UAL1671 KSFO-KDEN
Flight info
| Callsign | UAL1671 |
|---|---|
| Flight time | N/A |
| Altitude | 39000 |
| Route | TRUKN2 SYRAH Q128 JSICA LUDOH BUMMP SSKII4 |
| Aircraft | B38M/M-SDE1FGHILORVWXY/HB1 |
Departure
| Time | 2026-05-04 00:44 |
|---|---|
| Airport | San Francisco International Airport (KSFO) |
Arrival
| Time | N/A |
|---|---|
| Airport | Denver International Airport (KDEN) |
| Time | Latitude | Longitude | Altitude | Speed | Heading |
|---|---|---|---|---|---|
| 2026-05-03 23:48 | 37.61804 | -122.38410 | 27 ft | 0 kts | 285° |
| 2026-05-04 00:19 | 37.61802 | -122.38399 | 27 ft | 4 kts | 282° |
| 2026-05-04 00:20 | 37.61802 | -122.38368 | 26 ft | 4 kts | 242° |
| 2026-05-04 00:20 | 37.61817 | -122.38349 | 27 ft | 4 kts | 215° |
| 2026-05-04 00:20 | 37.61840 | -122.38331 | 24 ft | 4 kts | 205° |
| 2026-05-04 00:20 | 37.61861 | -122.38319 | 28 ft | 2 kts | 208° |
| 2026-05-04 00:21 | 37.61883 | -122.38305 | 26 ft | 4 kts | 203° |
| 2026-05-04 00:21 | 37.61908 | -122.38291 | 26 ft | 4 kts | 206° |
| 2026-05-04 00:21 | 37.61925 | -122.38279 | 25 ft | 4 kts | 247° |
| 2026-05-04 00:21 | 37.61926 | -122.38249 | 28 ft | 4 kts | 266° |
| 2026-05-04 00:22 | 37.61923 | -122.38250 | 26 ft | 4 kts | 224° |
| 2026-05-04 00:22 | 37.61901 | -122.38251 | 27 ft | 4 kts | 176° |
| 2026-05-04 00:22 | 37.61874 | -122.38262 | 26 ft | 1 kts | 21° |
| 2026-05-04 00:37 | 37.61876 | -122.38261 | 24 ft | 4 kts | 24° |
| 2026-05-04 00:37 | 37.61933 | -122.38220 | 26 ft | 13 kts | 30° |
| 2026-05-04 00:38 | 37.61945 | -122.38201 | 26 ft | 7 kts | 77° |
| 2026-05-04 00:38 | 37.61925 | -122.38109 | 28 ft | 15 kts | 118° |
| 2026-05-04 00:38 | 37.61876 | -122.37985 | 24 ft | 17 kts | 108° |
| 2026-05-04 00:38 | 37.61830 | -122.37846 | 24 ft | 18 kts | 115° |
| 2026-05-04 00:39 | 37.61776 | -122.37695 | 24 ft | 20 kts | 111° |
| 2026-05-04 00:39 | 37.61733 | -122.37546 | 28 ft | 19 kts | 110° |
| 2026-05-04 00:39 | 37.61677 | -122.37394 | 26 ft | 20 kts | 124° |
| 2026-05-04 00:39 | 37.61605 | -122.37237 | 28 ft | 21 kts | 119° |
| 2026-05-04 00:40 | 37.61531 | -122.37066 | 24 ft | 23 kts | 115° |
| 2026-05-04 00:40 | 37.61442 | -122.36891 | 24 ft | 24 kts | 131° |
| 2026-05-04 00:40 | 37.61338 | -122.36716 | 26 ft | 26 kts | 118° |
| 2026-05-04 00:40 | 37.61253 | -122.36512 | 24 ft | 26 kts | 117° |
| 2026-05-04 00:41 | 37.61181 | -122.36341 | 24 ft | 17 kts | 116° |
| 2026-05-04 00:41 | 37.61123 | -122.36205 | 25 ft | 18 kts | 117° |
| 2026-05-04 00:41 | 37.61063 | -122.36056 | 24 ft | 20 kts | 115° |
| 2026-05-04 00:41 | 37.61047 | -122.35987 | 24 ft | 0 kts | 98° |
| 2026-05-04 00:42 | 37.61047 | -122.35984 | 24 ft | 2 kts | 94° |
| 2026-05-04 00:42 | 37.61073 | -122.35940 | 24 ft | 12 kts | 42° |
| 2026-05-04 00:42 | 37.61158 | -122.35886 | 24 ft | 15 kts | 346° |
| 2026-05-04 00:43 | 37.61232 | -122.35983 | 25 ft | 16 kts | 294° |
| 2026-05-04 00:43 | 37.61285 | -122.36115 | 27 ft | 18 kts | 296° |
| 2026-05-04 00:43 | 37.61348 | -122.36260 | 28 ft | 22 kts | 297° |
| 2026-05-04 00:43 | 37.61516 | -122.36665 | 25 ft | 82 kts | 297° |
| 2026-05-04 00:44 | 37.61855 | -122.37518 | 26 ft | 133 kts | 295° |
| 2026-05-04 00:44 | 37.62359 | -122.38689 | 41 ft | 169 kts | 297° |
| 2026-05-04 00:44 | 37.62991 | -122.40036 | 352 ft | 186 kts | 301° |
| 2026-05-04 00:44 | 37.63816 | -122.41256 | 1071 ft | 180 kts | 322° |
| 2026-05-04 00:45 | 37.65023 | -122.41652 | 1739 ft | 189 kts | 3° |
| 2026-05-04 00:45 | 37.66263 | -122.40923 | 2115 ft | 213 kts | 45° |
| 2026-05-04 00:45 | 37.66929 | -122.39186 | 2504 ft | 232 kts | 77° |
| 2026-05-04 00:45 | 37.67420 | -122.37152 | 2838 ft | 257 kts | 71° |
| 2026-05-04 00:46 | 37.68015 | -122.35032 | 3809 ft | 252 kts | 71° |
| 2026-05-04 00:46 | 37.68606 | -122.32905 | 4393 ft | 269 kts | 73° |
| 2026-05-04 00:46 | 37.69235 | -122.30658 | 5248 ft | 269 kts | 75° |
| 2026-05-04 00:46 | 37.69848 | -122.28433 | 6224 ft | 269 kts | 75° |
| 2026-05-04 00:47 | 37.70464 | -122.26185 | 7008 ft | 273 kts | 75° |
| 2026-05-04 00:47 | 37.71088 | -122.23903 | 7795 ft | 276 kts | 75° |
| 2026-05-04 00:47 | 37.71742 | -122.21600 | 8575 ft | 282 kts | 69° |
| 2026-05-04 00:47 | 37.72771 | -122.19460 | 9363 ft | 287 kts | 60° |
| 2026-05-04 00:48 | 37.73884 | -122.17340 | 10117 ft | 292 kts | 59° |
| 2026-05-04 00:48 | 37.75025 | -122.15148 | 10560 ft | 307 kts | 60° |
| 2026-05-04 00:48 | 37.75814 | -122.13626 | 10836 ft | 317 kts | 59° |
| 2026-05-04 00:48 | 37.77041 | -122.11260 | 11391 ft | 327 kts | 60° |
| 2026-05-04 00:49 | 37.78285 | -122.08855 | 12240 ft | 328 kts | 59° |
| 2026-05-04 00:49 | 37.79540 | -122.06428 | 13021 ft | 331 kts | 59° |
| 2026-05-04 00:49 | 37.80804 | -122.03981 | 13829 ft | 335 kts | 59° |
| 2026-05-04 00:49 | 37.82077 | -122.01493 | 14562 ft | 337 kts | 63° |
| 2026-05-04 00:50 | 37.82898 | -121.98736 | 15269 ft | 336 kts | 79° |
| 2026-05-04 00:50 | 37.83449 | -121.95844 | 16012 ft | 340 kts | 79° |
| 2026-05-04 00:50 | 37.84011 | -121.92920 | 16685 ft | 345 kts | 79° |
| 2026-05-04 00:50 | 37.84569 | -121.89956 | 17440 ft | 347 kts | 79° |
| 2026-05-04 00:51 | 37.85129 | -121.86964 | 18110 ft | 352 kts | 79° |
| 2026-05-04 00:51 | 37.85692 | -121.83929 | 18734 ft | 355 kts | 79° |
| 2026-05-04 00:51 | 37.86256 | -121.80896 | 19376 ft | 357 kts | 79° |
| 2026-05-04 00:51 | 37.86823 | -121.77831 | 19979 ft | 359 kts | 79° |
| 2026-05-04 00:52 | 37.87393 | -121.74749 | 20641 ft | 360 kts | 79° |
| 2026-05-04 00:52 | 37.87964 | -121.71657 | 21284 ft | 361 kts | 79° |
| 2026-05-04 00:52 | 37.88534 | -121.68561 | 21920 ft | 362 kts | 79° |
| 2026-05-04 00:52 | 37.89109 | -121.65441 | 22553 ft | 364 kts | 79° |
| 2026-05-04 00:53 | 37.89682 | -121.62319 | 23159 ft | 365 kts | 80° |
| 2026-05-04 00:53 | 37.90259 | -121.59178 | 23720 ft | 367 kts | 80° |
| 2026-05-04 00:53 | 37.90837 | -121.56027 | 24209 ft | 368 kts | 79° |
| 2026-05-04 00:53 | 37.91415 | -121.52863 | 24690 ft | 369 kts | 79° |
| 2026-05-04 00:54 | 37.91993 | -121.49701 | 25145 ft | 371 kts | 79° |
| 2026-05-04 00:54 | 37.92568 | -121.46545 | 25596 ft | 373 kts | 79° |
| 2026-05-04 00:54 | 37.93152 | -121.43337 | 26050 ft | 375 kts | 79° |
| 2026-05-04 00:54 | 37.93736 | -121.40115 | 26494 ft | 377 kts | 79° |
| 2026-05-04 00:55 | 37.94327 | -121.36856 | 26836 ft | 381 kts | 79° |
| 2026-05-04 00:55 | 37.94921 | -121.33580 | 27271 ft | 383 kts | 79° |
| 2026-05-04 00:55 | 37.95517 | -121.30283 | 27715 ft | 384 kts | 78° |
| 2026-05-04 00:55 | 37.96113 | -121.26976 | 28126 ft | 386 kts | 78° |
| 2026-05-04 00:56 | 37.96712 | -121.23654 | 28519 ft | 388 kts | 78° |
| 2026-05-04 00:56 | 37.97312 | -121.20317 | 28810 ft | 392 kts | 78° |
| 2026-05-04 00:56 | 37.97921 | -121.16927 | 29159 ft | 395 kts | 78° |
| 2026-05-04 00:56 | 37.98532 | -121.13522 | 29548 ft | 397 kts | 78° |
| 2026-05-04 00:57 | 37.99120 | -121.10096 | 29908 ft | 399 kts | 80° |
| 2026-05-04 00:57 | 37.99648 | -121.06632 | 30234 ft | 401 kts | 80° |
| 2026-05-04 00:57 | 38.00178 | -121.03194 | 30475 ft | 405 kts | 80° |
| 2026-05-04 00:57 | 38.00723 | -120.99676 | 30708 ft | 409 kts | 80° |
| 2026-05-04 00:58 | 38.01274 | -120.96120 | 30948 ft | 412 kts | 80° |
| 2026-05-04 00:58 | 38.01827 | -120.92538 | 31149 ft | 416 kts | 80° |
| 2026-05-04 00:58 | 38.02385 | -120.88924 | 31346 ft | 421 kts | 80° |
| 2026-05-04 00:58 | 38.02948 | -120.85271 | 31619 ft | 423 kts | 80° |
| 2026-05-04 00:59 | 38.03514 | -120.81587 | 31830 ft | 427 kts | 80° |
| 2026-05-04 00:59 | 38.04083 | -120.77878 | 32078 ft | 430 kts | 80° |
| 2026-05-04 00:59 | 38.04655 | -120.74138 | 32310 ft | 434 kts | 81° |
| 2026-05-04 00:59 | 38.05232 | -120.70357 | 32528 ft | 437 kts | 81° |
| 2026-05-04 01:00 | 38.05811 | -120.66557 | 32779 ft | 440 kts | 81° |
| 2026-05-04 01:00 | 38.06392 | -120.62732 | 33060 ft | 442 kts | 81° |
| 2026-05-04 01:00 | 38.06971 | -120.58913 | 33345 ft | 443 kts | 81° |
| 2026-05-04 01:00 | 38.07546 | -120.55110 | 33621 ft | 445 kts | 81° |
| 2026-05-04 01:01 | 38.08129 | -120.51247 | 33901 ft | 447 kts | 81° |
| 2026-05-04 01:01 | 38.08714 | -120.47362 | 34122 ft | 449 kts | 81° |
| 2026-05-04 01:01 | 38.09300 | -120.43460 | 34329 ft | 451 kts | 81° |
| 2026-05-04 01:01 | 38.09887 | -120.39549 | 34544 ft | 452 kts | 81° |
| 2026-05-04 01:02 | 38.10474 | -120.35616 | 34765 ft | 454 kts | 81° |
| 2026-05-04 01:02 | 38.11064 | -120.31666 | 34969 ft | 456 kts | 81° |
| 2026-05-04 01:02 | 38.11652 | -120.27711 | 35183 ft | 458 kts | 81° |
| 2026-05-04 01:02 | 38.12243 | -120.23728 | 35396 ft | 460 kts | 81° |
| 2026-05-04 01:03 | 38.12834 | -120.19737 | 35598 ft | 461 kts | 81° |
| 2026-05-04 01:03 | 38.13427 | -120.15718 | 35817 ft | 463 kts | 81° |
| 2026-05-04 01:03 | 38.14018 | -120.11710 | 36013 ft | 464 kts | 81° |
| 2026-05-04 01:03 | 38.14613 | -120.07662 | 36195 ft | 466 kts | 81° |
| 2026-05-04 01:04 | 38.15207 | -120.03609 | 36403 ft | 467 kts | 81° |
| 2026-05-04 01:04 | 38.15794 | -119.99594 | 36586 ft | 469 kts | 81° |
| 2026-05-04 01:04 | 38.16387 | -119.95532 | 36768 ft | 470 kts | 81° |
| 2026-05-04 01:04 | 38.16983 | -119.91435 | 36965 ft | 471 kts | 81° |
| 2026-05-04 01:05 | 38.17577 | -119.87342 | 37141 ft | 473 kts | 81° |
| 2026-05-04 01:05 | 38.18172 | -119.83222 | 37256 ft | 475 kts | 82° |
| 2026-05-04 01:05 | 38.18773 | -119.79065 | 37260 ft | 480 kts | 82° |
| 2026-05-04 01:05 | 38.19375 | -119.74885 | 37481 ft | 480 kts | 82° |
| 2026-05-04 01:06 | 38.19977 | -119.70695 | 37638 ft | 482 kts | 82° |
| 2026-05-04 01:06 | 38.20578 | -119.66495 | 37799 ft | 483 kts | 82° |
| 2026-05-04 01:06 | 38.21177 | -119.62307 | 37961 ft | 484 kts | 82° |
| 2026-05-04 01:06 | 38.21779 | -119.58079 | 38093 ft | 486 kts | 82° |
| 2026-05-04 01:07 | 38.22383 | -119.53831 | 38068 ft | 491 kts | 82° |
| 2026-05-04 01:07 | 38.23604 | -119.45203 | 38132 ft | 498 kts | 82° |
| 2026-05-04 01:07 | 38.24215 | -119.40868 | 38300 ft | 499 kts | 82° |
| 2026-05-04 01:08 | 38.24825 | -119.36523 | 38460 ft | 500 kts | 82° |
| 2026-05-04 01:08 | 38.25433 | -119.32187 | 38565 ft | 501 kts | 82° |
| 2026-05-04 01:08 | 38.26044 | -119.27816 | 38674 ft | 502 kts | 82° |
| 2026-05-04 01:09 | 38.27259 | -119.19084 | 38886 ft | 500 kts | 82° |
| 2026-05-04 01:09 | 38.28457 | -119.10428 | 38875 ft | 490 kts | 82° |
| 2026-05-04 01:10 | 38.29629 | -119.01910 | 38874 ft | 490 kts | 82° |
| 2026-05-04 01:10 | 38.30792 | -118.93409 | 38856 ft | 490 kts | 82° |
| 2026-05-04 01:11 | 38.31958 | -118.84840 | 38877 ft | 492 kts | 82° |
| 2026-05-04 01:11 | 38.33120 | -118.76250 | 38892 ft | 492 kts | 82° |
| 2026-05-04 01:12 | 38.34273 | -118.67681 | 38911 ft | 491 kts | 82° |
| 2026-05-04 01:12 | 38.35412 | -118.59164 | 38914 ft | 491 kts | 82° |
| 2026-05-04 01:13 | 38.36552 | -118.50595 | 38895 ft | 491 kts | 82° |
| 2026-05-04 01:13 | 38.37687 | -118.42010 | 38864 ft | 491 kts | 82° |
| 2026-05-04 01:14 | 38.38815 | -118.33431 | 38838 ft | 494 kts | 82° |
| 2026-05-04 01:14 | 38.39950 | -118.24742 | 38782 ft | 498 kts | 82° |
| 2026-05-04 01:15 | 38.41088 | -118.15980 | 38770 ft | 503 kts | 82° |
| 2026-05-04 01:15 | 38.42228 | -118.07150 | 38774 ft | 507 kts | 82° |
| 2026-05-04 01:16 | 38.43360 | -117.98327 | 38755 ft | 506 kts | 83° |
| 2026-05-04 01:16 | 38.44479 | -117.89552 | 38761 ft | 496 kts | 83° |
| 2026-05-04 01:17 | 38.45577 | -117.80890 | 38772 ft | 495 kts | 83° |
| 2026-05-04 01:17 | 38.46671 | -117.72208 | 38763 ft | 496 kts | 83° |
| 2026-05-04 01:18 | 38.47759 | -117.63521 | 38773 ft | 495 kts | 83° |